الصفحة الرئيسية
METAR-TAF:

METAR-TAF

مطار :

ليون, فرنسا

دائرة عرض: 45-43N, خط طول: 004-57E, ارتفاع: 200 متر

مراقبة الطقس الحالي

تاريخ ووقت الإصدار 32 دقيقة قبل الساعة 08:00UTC
ريح 10 عقدة من الشمال/الشمال الغربي
درجة الحرارة 21°درجة مئوية
الرطوبة 49%
ضغط 1022 hPa
الرؤية 10 كم أو أكثر
الغيوم لا تقل 1500 م ولا وجود لمزنة ركامية السحاب الأسود

METAR: LFLY 040800Z AUTO 34010KT CAVOK 21/10 Q1022 NOSIG

زمن: 10:32 (08:32 UTC)

توقعات

تاريخ ووقت الإصدار 3ساعات و 32 دقيقة قبل الساعة 05:00UTC
التوقعات صالحة من04 الساعة 06 UTC إلى 05 الساعة 06 UTC
ريح 3 عقدةمن اتجاهات متغيرة
الرؤية 10 كم أو أكثر
الغيوم لا تقل 1500 م ولا وجود لمزنة ركامية السحاب الأسود
أصبح
من 04 الساعة 07 UTC إلى 04 الساعة 09 UTC
ريح 8 عقدة من الشمال
أصبح
من 04 الساعة 20 UTC إلى 04 الساعة 22 UTC
ريح 2 عقدةمن اتجاهات متغيرة

TAF: LFLY 040500Z 0406/0506 VRB03KT CAVOK BECMG 0407/0409 36008KT BECMG 0420/0422 VRB02KT

أرصاد الطقس والتوقعات من أكثر من 4000 مطار (تقارير الطقس للمطار METAR والتنبؤ بالطقس بالمطارTAF).

المحطات المتاحة هي النقط الصفراء والحمراء على الخريطة.

حرك المؤشر فوق النقطة لمعرفة اسم المحطة.

ثم انقر لمعرفة أرصاد وتوقعات الطقس.

لتغيير الخارطة: اضغط على الأزرار الخضراء مع رمز الصليب الأسود للتكبير. على الزر الأخضر مع شرطة للتصغير، أو على الأسهم الخضراء للخرائط المجاورة.


METAR-TAF: